Time;durP1;ratioP1;P1;durP2;ratioP2;P2;SDS_P1;SDS_P2;PMS_P1;PMS_P2;Temp;Humidity;BMP_temperature;BMP_pressure;BME280_temperature;BME280_humidity;BME280_pressure;Samples;Min_cycle;Max_cycle;Signal;HPM_P1;HPM_P2
2020/12/29 00:00:37;;;;;;;0.82;0.10;;;7.90;79.90;;;;;;5056712;28;20115;-71
2020/12/29 00:03:03;;;;;;;1.20;0.10;;;8.00;79.90;;;;;;5057002;28;20041;-71
2020/12/29 00:05:29;;;;;;;1.08;0.10;;;8.00;79.90;;;;;;5056467;28;20051;-71
2020/12/29 00:07:55;;;;;;;1.15;0.10;;;8.20;79.90;;;;;;5056337;28;20040;-71
2020/12/29 00:10:24;;;;;;;2.10;0.10;;;8.10;79.80;;;;;;5056159;28;20145;-71
2020/12/29 00:12:51;;;;;;;1.05;0.10;;;8.40;79.90;;;;;;5056294;28;20036;-71
2020/12/29 00:15:17;;;;;;;1.35;0.10;;;8.30;79.70;;;;;;5056412;28;20037;-71
2020/12/29 00:17:43;;;;;;;2.75;0.08;;;8.10;79.60;;;;;;5056461;28;20053;-71
2020/12/29 00:20:09;;;;;;;0.43;0.00;;;8.30;79.70;;;;;;5056346;28;20037;-71
2020/12/29 00:22:36;;;;;;;0.85;0.00;;;8.10;79.80;;;;;;5056200;28;20040;-71
2020/12/29 00:25:03;;;;;;;0.30;0.00;;;8.00;79.70;;;;;;5056476;28;20178;-71
2020/12/29 00:27:29;;;;;;;0.52;0.00;;;7.90;79.60;;;;;;5056132;28;20044;-71
2020/12/29 00:29:55;;;;;;;0.25;0.00;;;7.90;79.60;;;;;;5055413;28;20059;-71
2020/12/29 00:32:20;;;;;;;0.40;0.00;;;7.90;79.50;;;;;;5055432;28;20036;-71
2020/12/29 00:34:47;;;;;;;0.80;0.10;;;7.90;79.60;;;;;;5055744;28;20048;-71
2020/12/29 00:37:13;;;;;;;1.02;0.10;;;7.70;79.40;;;;;;5055737;28;20049;-71
2020/12/29 00:39:39;;;;;;;0.98;0.10;;;8.10;79.70;;;;;;5054857;28;20051;-71
2020/12/29 00:42:05;;;;;;;0.70;0.00;;;8.10;79.90;;;;;;5073103;28;20499;-71
2020/12/29 00:44:31;;;;;;;0.50;0.00;;;7.90;79.90;;;;;;5075311;28;20090;-71
2020/12/29 00:46:57;;;;;;;0.20;0.00;;;8.00;80.00;;;;;;5075159;28;20037;-71
2020/12/29 00:49:23;;;;;;;1.67;0.10;;;7.90;80.00;;;;;;5075141;28;20036;-71
2020/12/29 00:51:49;;;;;;;0.93;0.00;;;8.20;80.20;;;;;;5075610;28;20036;-71
2020/12/29 00:54:15;;;;;;;0.32;0.10;;;7.80;80.10;;;;;;5075429;28;20036;-71
2020/12/29 00:56:40;;;;;;;1.30;0.00;;;8.10;80.30;;;;;;5075187;28;20048;-71
2020/12/29 00:59:06;;;;;;;0.57;0.08;;;8.20;80.40;;;;;;5074782;28;20029;-72
2020/12/29 01:01:32;;;;;;;1.23;0.00;;;8.20;80.40;;;;;;5075041;28;20048;-71
2020/12/29 01:03:58;;;;;;;0.30;0.00;;;8.00;80.40;;;;;;5075202;28;20495;-71
2020/12/29 01:06:27;;;;;;;1.02;0.00;;;8.20;80.50;;;;;;5075093;28;20044;-71
2020/12/29 01:08:53;;;;;;;0.50;0.00;;;8.10;80.40;;;;;;5075107;28;20033;-71
2020/12/29 01:11:19;;;;;;;0.52;0.00;;;8.10;80.40;;;;;;5074927;28;20376;-71
2020/12/29 01:13:45;;;;;;;0.70;0.00;;;8.10;80.50;;;;;;5074455;28;20059;-71
2020/12/29 01:16:11;;;;;;;0.47;0.00;;;8.10;80.50;;;;;;5074743;28;20132;-71
2020/12/29 01:18:39;;;;;;;0.95;0.00;;;8.20;80.50;;;;;;5074828;28;20090;-71
2020/12/29 01:21:09;;;;;;;0.55;0.00;;;7.90;80.30;;;;;;5074705;28;20044;-71
2020/12/29 01:23:35;;;;;;;0.30;0.00;;;8.20;80.50;;;;;;5074781;28;20036;-71
2020/12/29 01:26:01;;;;;;;0.65;0.00;;;8.00;80.60;;;;;;5074558;28;20036;-72
2020/12/29 01:28:27;;;;;;;0.52;0.00;;;8.00;80.60;;;;;;5074326;28;20053;-71
2020/12/29 01:30:53;;;;;;;1.23;0.00;;;8.10;80.70;;;;;;5074977;28;20392;-71
2020/12/29 01:33:19;;;;;;;0.45;0.00;;;8.30;80.80;;;;;;5074787;28;20045;-71
2020/12/29 01:35:45;;;;;;;0.17;0.00;;;8.00;80.50;;;;;;5074797;28;20052;-72
2020/12/29 01:38:10;;;;;;;0.40;0.00;;;8.10;80.60;;;;;;5074420;28;20094;-71
2020/12/29 01:40:36;;;;;;;0.22;0.00;;;7.80;80.60;;;;;;5074934;28;20043;-72
2020/12/29 01:43:03;;;;;;;0.30;0.00;;;7.70;80.70;;;;;;5074754;28;20033;-72
2020/12/29 01:45:29;;;;;;;0.30;0.00;;;8.00;81.00;;;;;;5074560;28;20082;-72
2020/12/29 01:47:55;;;;;;;0.40;0.00;;;8.00;80.90;;;;;;5074298;28;20387;-72
2020/12/29 01:50:23;;;;;;;2.13;0.00;;;7.90;81.00;;;;;;5073954;28;20036;-72
2020/12/29 01:53:00;;;;;;;0.43;0.00;;;7.90;81.00;;;;;;5073135;28;20098;-72
2020/12/29 01:55:28;;;;;;;0.43;0.00;;;8.70;81.40;;;;;;5047857;28;20110;-72
2020/12/29 01:57:55;;;;;;;0.20;0.00;;;7.90;80.90;;;;;;5054162;28;20045;-72
2020/12/29 02:00:23;;;;;;;0.70;0.00;;;8.10;81.10;;;;;;5054355;28;20048;-72
2020/12/29 02:02:50;;;;;;;1.27;0.00;;;7.80;81.10;;;;;;5054085;28;20071;-72
2020/12/29 02:05:15;;;;;;;0.40;0.00;;;7.90;81.20;;;;;;5054097;28;20071;-72
2020/12/29 02:07:42;;;;;;;1.35;0.00;;;8.10;81.40;;;;;;5054042;28;20496;-72
2020/12/29 02:10:08;;;;;;;1.27;0.00;;;8.20;81.30;;;;;;5054285;28;20045;-72
2020/12/29 02:12:36;;;;;;;0.40;0.00;;;7.90;81.00;;;;;;5054033;28;20123;-72
2020/12/29 02:15:07;;;;;;;1.33;0.00;;;8.20;81.20;;;;;;5053697;28;20048;-72
2020/12/29 02:17:32;;;;;;;0.63;0.00;;;7.90;81.00;;;;;;5054138;28;20111;-72
2020/12/29 02:19:59;;;;;;;0.10;0.00;;;8.30;81.30;;;;;;5053249;28;20084;-72
2020/12/29 02:22:26;;;;;;;0.28;0.00;;;7.90;81.10;;;;;;5044521;28;20500;-72
2020/12/29 02:24:57;;;;;;;0.10;0.00;;;8.10;81.20;;;;;;5034200;28;20095;-72
2020/12/29 02:27:25;;;;;;;0.40;0.00;;;8.00;81.20;;;;;;5033503;28;20040;-72
2020/12/29 02:29:51;;;;;;;1.45;0.00;;;8.10;81.30;;;;;;5034132;28;20056;-72
2020/12/29 02:32:19;;;;;;;0.38;0.00;;;8.00;81.10;;;;;;5034050;28;20042;-72
2020/12/29 02:34:45;;;;;;;0.20;0.00;;;7.90;81.10;;;;;;5033666;28;20046;-72
2020/12/29 02:37:11;;;;;;;0.20;0.00;;;8.10;81.20;;;;;;5033941;28;20043;-72
2020/12/29 02:39:42;;;;;;;0.70;0.00;;;8.30;81.20;;;;;;5033697;28;20120;-72
2020/12/29 02:42:08;;;;;;;0.47;0.00;;;8.00;80.90;;;;;;5033147;28;20049;-72
2020/12/29 02:44:35;;;;;;;0.73;0.00;;;8.00;81.00;;;;;;5033605;28;20037;-72
2020/12/29 02:47:02;;;;;;;1.27;0.00;;;8.00;80.90;;;;;;5033697;28;20034;-72
2020/12/29 02:49:28;;;;;;;1.10;0.00;;;7.90;80.80;;;;;;5033753;28;20060;-72
2020/12/29 02:51:56;;;;;;;1.50;0.00;;;8.00;81.00;;;;;;5033632;28;20499;-72
2020/12/29 02:54:26;;;;;;;0.80;0.05;;;8.00;80.90;;;;;;5033466;28;20124;-72
2020/12/29 02:56:51;;;;;;;1.35;0.00;;;7.70;80.80;;;;;;5033513;28;20045;-72
2020/12/29 02:59:17;;;;;;;0.73;0.00;;;8.20;81.00;;;;;;5033556;28;20076;-72
2020/12/29 03:01:43;;;;;;;1.10;0.00;;;7.80;80.90;;;;;;5034985;28;20091;-72
2020/12/29 03:04:09;;;;;;;0.75;0.00;;;8.00;81.10;;;;;;5037577;28;20041;-72
2020/12/29 03:06:35;;;;;;;1.20;0.00;;;7.60;80.90;;;;;;5037558;28;20043;-73
2020/12/29 03:09:00;;;;;;;1.27;0.00;;;7.80;81.00;;;;;;5037530;28;20076;-72
2020/12/29 03:11:30;;;;;;;0.98;0.00;;;7.90;80.90;;;;;;5037431;28;20065;-72
2020/12/29 03:13:58;;;;;;;0.93;0.00;;;7.90;80.90;;;;;;5037732;28;20484;-72
2020/12/29 03:16:24;;;;;;;0.82;0.00;;;8.10;80.90;;;;;;5037357;28;20045;-72
2020/12/29 03:18:50;;;;;;;1.48;0.10;;;7.70;80.70;;;;;;5037349;28;20069;-72
2020/12/29 03:21:16;;;;;;;1.58;0.10;;;7.80;80.80;;;;;;5037192;28;20076;-72
2020/12/29 03:23:42;;;;;;;1.98;0.00;;;7.80;80.80;;;;;;5037092;28;20533;-72
2020/12/29 03:26:08;;;;;;;1.85;0.00;;;8.10;81.10;;;;;;5037077;28;20226;-72
2020/12/29 03:28:35;;;;;;;0.63;0.00;;;7.90;81.00;;;;;;5036841;28;20077;-72
2020/12/29 03:31:01;;;;;;;1.67;0.00;;;7.80;80.80;;;;;;5037119;28;20048;-72
2020/12/29 03:33:27;;;;;;;0.82;0.10;;;7.60;80.80;;;;;;5036793;28;20102;-72
2020/12/29 03:35:54;;;;;;;1.52;0.00;;;7.80;80.90;;;;;;5036727;28;20049;-72
2020/12/29 03:38:20;;;;;;;1.35;0.00;;;7.70;80.90;;;;;;5036006;28;20049;-72
2020/12/29 03:40:46;;;;;;;1.67;0.00;;;7.70;80.90;;;;;;5036792;28;20041;-72
2020/12/29 03:43:13;;;;;;;1.55;0.00;;;7.80;81.00;;;;;;5036394;28;20114;-72
2020/12/29 03:45:44;;;;;;;1.45;0.00;;;7.80;81.10;;;;;;5036759;28;20463;-71
2020/12/29 03:48:11;;;;;;;1.00;0.00;;;8.00;81.20;;;;;;5036879;28;20064;-72
2020/12/29 03:50:38;;;;;;;2.03;0.10;;;7.90;81.10;;;;;;5036781;28;20037;-72
2020/12/29 03:53:04;;;;;;;3.97;0.10;;;7.80;81.00;;;;;;5049648;28;20408;-72
2020/12/29 03:55:30;;;;;;;2.15;0.05;;;7.60;80.90;;;;;;5056063;28;20049;-72
2020/12/29 03:57:56;;;;;;;1.77;0.10;;;7.70;80.90;;;;;;5055809;28;20051;-72
2020/12/29 04:00:22;;;;;;;1.92;0.10;;;7.50;80.90;;;;;;5056295;28;20028;-72
2020/12/29 04:02:48;;;;;;;0.98;0.00;;;7.50;81.00;;;;;;5056398;28;20040;-72
2020/12/29 04:05:14;;;;;;;1.23;0.10;;;7.40;81.10;;;;;;5056131;28;20119;-71
2020/12/29 04:07:40;;;;;;;2.08;0.10;;;7.40;81.10;;;;;;5056161;28;20037;-72
2020/12/29 04:10:06;;;;;;;1.05;0.03;;;7.30;81.70;;;;;;5056140;28;20120;-72
2020/12/29 04:12:32;;;;;;;2.05;0.10;;;7.30;81.20;;;;;;5056096;28;20052;-72
2020/12/29 04:14:58;;;;;;;1.90;0.00;;;7.20;81.00;;;;;;5055913;28;20243;-72
2020/12/29 04:17:24;;;;;;;1.67;0.00;;;7.40;81.00;;;;;;5042937;28;20053;-72
2020/12/29 04:19:50;;;;;;;3.22;0.00;;;7.20;81.00;;;;;;5043928;28;20045;-71
2020/12/29 04:22:16;;;;;;;1.17;0.08;;;7.40;81.10;;;;;;5055758;28;20573;-72
2020/12/29 04:24:42;;;;;;;2.25;0.00;;;7.00;80.80;;;;;;5055695;28;20518;-72
2020/12/29 04:27:07;;;;;;;1.10;0.00;;;7.20;80.90;;;;;;5055766;28;20068;-72
2020/12/29 04:29:33;;;;;;;2.00;0.00;;;6.90;80.70;;;;;;5056071;28;20057;-72
2020/12/29 04:31:59;;;;;;;2.13;0.00;;;7.10;80.90;;;;;;5055890;28;20089;-71
2020/12/29 04:34:25;;;;;;;1.27;0.00;;;6.90;80.90;;;;;;5055886;28;20426;-72
2020/12/29 04:36:54;;;;;;;2.70;0.10;;;6.90;81.00;;;;;;5056274;28;20043;-72
2020/12/29 04:39:21;;;;;;;1.17;0.00;;;6.70;80.90;;;;;;5056094;28;20066;-72
2020/12/29 04:41:52;;;;;;;2.38;0.10;;;6.60;81.00;;;;;;5055627;28;20404;-72
2020/12/29 04:44:20;;;;;;;3.08;0.00;;;6.80;81.20;;;;;;5055686;28;20041;-71
2020/12/29 04:46:47;;;;;;;1.73;0.03;;;6.50;81.10;;;;;;5056081;28;20164;-72
2020/12/29 04:49:12;;;;;;;2.33;0.10;;;6.80;81.20;;;;;;5055800;28;20117;-72
2020/12/29 04:51:39;;;;;;;2.72;0.20;;;6.60;81.10;;;;;;5055560;28;20057;-71
2020/12/29 04:54:07;;;;;;;3.38;0.05;;;6.80;81.20;;;;;;5055756;28;20045;-71
2020/12/29 04:56:35;;;;;;;1.73;0.00;;;6.50;81.10;;;;;;5055554;28;20091;-71
2020/12/29 04:59:03;;;;;;;1.30;0.10;;;6.60;81.30;;;;;;5055517;28;20508;-71
2020/12/29 05:01:34;;;;;;;0.73;0.00;;;6.40;81.20;;;;;;5055465;28;20124;-72
2020/12/29 05:04:01;;;;;;;0.57;0.00;;;6.30;81.40;;;;;;5055297;28;20033;-71
2020/12/29 05:06:27;;;;;;;1.83;0.08;;;6.70;81.60;;;;;;5055639;28;20073;-72
2020/12/29 05:08:53;;;;;;;3.13;0.10;;;6.40;81.50;;;;;;5055119;28;20079;-71
2020/12/29 05:11:23;;;;;;;0.93;0.00;;;6.50;81.50;;;;;;5055343;28;20041;-71
2020/12/29 05:13:49;;;;;;;0.98;0.00;;;6.50;81.60;;;;;;5054806;28;20126;-71
2020/12/29 05:16:16;;;;;;;1.65;0.00;;;6.30;81.40;;;;;;5055304;28;20037;-71
2020/12/29 05:18:43;;;;;;;2.80;0.00;;;6.30;81.30;;;;;;5054743;28;20091;-71
2020/12/29 05:21:09;;;;;;;1.55;0.00;;;6.50;81.50;;;;;;5054449;28;20458;-71
2020/12/29 05:23:36;;;;;;;3.70;0.00;;;6.50;81.40;;;;;;5054726;28;20041;-71
2020/12/29 05:26:03;;;;;;;2.63;0.10;;;6.40;81.20;;;;;;5054940;28;20508;-71
2020/12/29 05:28:29;;;;;;;0.88;0.00;;;6.50;81.20;;;;;;5054662;28;20079;-71
2020/12/29 05:30:57;;;;;;;2.60;0.10;;;6.50;81.30;;;;;;5054859;28;20029;-71
2020/12/29 05:33:23;;;;;;;0.95;0.10;;;6.30;81.10;;;;;;5054847;28;20036;-71
2020/12/29 05:35:54;;;;;;;1.63;0.10;;;6.80;81.20;;;;;;5044273;28;20142;-71
2020/12/29 05:38:20;;;;;;;1.70;0.10;;;6.30;80.90;;;;;;5034873;28;20116;-71
2020/12/29 05:40:47;;;;;;;1.00;0.00;;;6.10;80.70;;;;;;5034967;28;20029;-71
2020/12/29 05:43:14;;;;;;;2.95;0.03;;;6.00;80.60;;;;;;5033452;28;20388;-71
2020/12/29 05:45:40;;;;;;;2.53;0.10;;;6.40;80.70;;;;;;5039753;28;20043;-71
2020/12/29 05:48:06;;;;;;;1.33;0.10;;;6.30;80.80;;;;;;5054742;28;20048;-71
2020/12/29 05:50:33;;;;;;;3.10;0.17;;;6.30;81.00;;;;;;5054605;28;20041;-71
2020/12/29 05:53:09;;;;;;;3.00;0.20;;;6.20;81.10;;;;;;5054717;28;20506;-71
2020/12/29 05:55:35;;;;;;;2.13;0.10;;;6.30;81.10;;;;;;5053797;28;20500;-71
2020/12/29 05:58:03;;;;;;;4.30;0.10;;;6.30;81.20;;;;;;5054394;28;20068;-71
2020/12/29 06:00:29;;;;;;;3.35;0.25;;;6.20;81.20;;;;;;5051655;28;20444;-71
2020/12/29 06:02:56;;;;;;;3.47;0.10;;;6.10;81.20;;;;;;5034390;28;20116;-71
2020/12/29 06:05:24;;;;;;;6.15;0.30;;;6.20;81.30;;;;;;5034379;28;20045;-71
2020/12/29 06:08:02;;;;;;;1.83;0.10;;;6.20;81.40;;;;;;5036161;28;20049;-71
2020/12/29 06:10:29;;;;;;;1.92;0.10;;;6.30;81.40;;;;;;5054534;28;20067;-71
2020/12/29 06:12:57;;;;;;;1.35;0.17;;;6.10;81.40;;;;;;5054088;28;20116;-71
2020/12/29 06:15:26;;;;;;;5.38;0.20;;;6.40;81.70;;;;;;5053838;28;20042;-71
2020/12/29 06:18:06;;;;;;;4.15;0.10;;;6.20;81.80;;;;;;5054294;28;20048;-71
2020/12/29 06:20:38;;;;;;;4.38;0.20;;;6.20;81.60;;;;;;5054191;28;20090;-71
2020/12/29 06:23:06;;;;;;;4.45;0.10;;;6.00;81.30;;;;;;5055728;28;20037;-71
2020/12/29 06:25:37;;;;;;;4.45;0.20;;;6.10;81.40;;;;;;5054220;28;20067;-71
2020/12/29 06:28:06;;;;;;;5.57;0.13;;;6.20;81.60;;;;;;5053805;28;20057;-72
2020/12/29 06:30:33;;;;;;;3.47;0.30;;;6.40;82.30;;;;;;5053547;28;20060;-71
2020/12/29 06:33:00;;;;;;;2.53;0.20;;;6.30;81.90;;;;;;5071239;28;20054;-71
2020/12/29 06:35:27;;;;;;;3.22;0.20;;;6.40;81.60;;;;;;5073590;28;20097;-71
2020/12/29 06:38:16;;;;;;;3.10;0.20;;;6.50;81.50;;;;;;5073583;28;20080;-71
2020/12/29 06:40:44;;;;;;;1.42;0.20;;;6.50;81.50;;;;;;5062994;28;20036;-71
2020/12/29 06:43:11;;;;;;;2.15;0.20;;;6.20;81.30;;;;;;5073724;28;20090;-71
2020/12/29 06:45:37;;;;;;;3.70;0.20;;;6.40;81.30;;;;;;5073638;28;20130;-71
2020/12/29 06:48:29;;;;;;;3.95;0.28;;;6.40;81.20;;;;;;5062240;28;20549;-71
2020/12/29 06:51:11;;;;;;;3.63;0.20;;;6.20;81.10;;;;;;5050913;28;20041;-71
2020/12/29 06:53:42;;;;;;;3.22;0.28;;;6.20;81.00;;;;;;5059636;28;20040;-71
2020/12/29 06:56:16;;;;;;;3.25;0.17;;;6.30;81.00;;;;;;5073815;28;20097;-71
2020/12/29 06:58:42;;;;;;;5.75;0.20;;;6.50;80.90;;;;;;5073750;28;20052;-71
2020/12/29 07:01:28;;;;;;;1.98;0.20;;;6.30;80.60;;;;;;5064694;28;20149;-71
2020/12/29 07:04:07;;;;;;;3.90;0.22;;;6.20;80.50;;;;;;5051413;28;20052;-70
2020/12/29 07:06:34;;;;;;;1.15;0.20;;;4.70;79.80;;;;;;5051423;28;20131;-70
2020/12/29 07:09:15;;;;;;;5.47;0.38;;;5.90;80.50;;;;;;5053440;28;20105;-70
2020/12/29 07:12:01;;;;;;;3.63;0.30;;;6.00;80.60;;;;;;5053435;28;20063;-70
2020/12/29 07:14:34;;;;;;;5.82;0.50;;;6.30;80.80;;;;;;5053346;28;20033;-71
2020/12/29 07:17:04;;;;;;;2.17;0.43;;;5.90;80.50;;;;;;5053468;28;20088;-71
2020/12/29 07:19:30;;;;;;;7.75;0.80;;;5.80;80.40;;;;;;5053070;28;20067;-71
2020/12/29 07:21:57;;;;;;;6.70;1.30;;;6.00;80.50;;;;;;5053469;28;20532;-71
2020/12/29 07:24:28;;;;;;;4.88;0.20;;;5.90;80.50;;;;;;5053558;28;20107;-71
2020/12/29 07:26:57;;;;;;;4.28;0.50;;;5.90;80.60;;;;;;5053014;28;20129;-71
2020/12/29 07:29:23;;;;;;;2.55;0.35;;;5.60;80.50;;;;;;5052747;28;20045;-71
2020/12/29 07:31:49;;;;;;;4.47;0.30;;;6.00;81.10;;;;;;5053207;28;20079;-71
2020/12/29 07:34:15;;;;;;;6.70;0.30;;;5.80;80.80;;;;;;5053248;28;20127;-71
2020/12/29 07:36:48;;;;;;;2.92;0.22;;;5.70;80.70;;;;;;5053302;28;20128;-71
2020/12/29 07:39:16;;;;;;;3.20;0.38;;;6.30;81.00;;;;;;5041200;28;20040;-71
2020/12/29 07:41:44;;;;;;;6.82;0.47;;;5.70;80.40;;;;;;5052496;28;20036;-71
2020/12/29 07:44:10;;;;;;;6.65;0.52;;;5.80;80.60;;;;;;5046066;28;20043;-72
2020/12/29 07:46:36;;;;;;;6.47;0.50;;;6.30;80.80;;;;;;5032259;28;20053;-71
2020/12/29 07:49:04;;;;;;;3.40;0.45;;;5.60;80.30;;;;;;5042532;28;20061;-71
2020/12/29 07:51:30;;;;;;;4.47;0.50;;;5.60;80.30;;;;;;5036023;28;20124;-71
2020/12/29 07:54:04;;;;;;;4.00;0.40;;;5.80;80.20;;;;;;5036186;28;20710;-71
2020/12/29 07:56:32;;;;;;;4.83;0.57;;;5.70;80.20;;;;;;5036361;28;20100;-71
2020/12/29 07:59:08;;;;;;;4.38;0.47;;;5.80;80.10;;;;;;5036037;28;20045;-71
2020/12/29 08:01:46;;;;;;;5.35;0.70;;;5.80;80.10;;;;;;5036370;28;20510;-71
2020/12/29 08:04:25;;;;;;;7.40;1.40;;;5.70;79.90;;;;;;5035767;28;20051;-71
2020/12/29 08:06:50;;;;;;;10.00;1.38;;;5.60;79.90;;;;;;5035969;28;20041;-71
2020/12/29 08:09:17;;;;;;;3.90;0.80;;;5.90;80.00;;;;;;5035500;28;20037;-71
2020/12/29 08:11:43;;;;;;;7.35;0.60;;;6.10;80.00;;;;;;5035791;28;20128;-71
2020/12/29 08:14:10;;;;;;;6.53;0.70;;;5.60;79.60;;;;;;5035727;28;20045;-71
2020/12/29 08:16:36;;;;;;;5.93;0.57;;;5.70;79.60;;;;;;5035625;28;20041;-71
2020/12/29 08:19:02;;;;;;;6.95;0.60;;;6.00;79.70;;;;;;5036054;28;20048;-71
2020/12/29 08:21:33;;;;;;;7.43;0.65;;;6.40;79.70;;;;;;5035701;28;20053;-71
2020/12/29 08:24:01;;;;;;;6.03;0.80;;;6.10;79.40;;;;;;5035751;28;20033;-71
2020/12/29 08:26:27;;;;;;;5.45;0.73;;;6.20;79.30;;;;;;5035696;28;20045;-72
2020/12/29 08:28:53;;;;;;;6.70;1.30;;;6.40;79.00;;;;;;5035049;28;20329;-71
2020/12/29 08:31:20;;;;;;;9.02;0.90;;;7.30;78.80;;;;;;5035548;28;20036;-72
2020/12/29 08:33:49;;;;;;;4.78;0.88;;;7.80;78.40;;;;;;5035065;28;20095;-72
2020/12/29 08:36:26;;;;;;;4.43;1.08;;;8.40;78.00;;;;;;5044371;28;20075;-72
2020/12/29 08:39:26;;;;;;;5.40;0.95;;;9.10;77.40;;;;;;5037704;28;20072;-72
2020/12/29 08:41:56;;;;;;;6.75;0.88;;;9.80;76.10;;;;;;5035301;28;20064;-72
2020/12/29 08:44:24;;;;;;;7.95;1.23;;;10.70;74.80;;;;;;5033164;28;20489;-72
2020/12/29 08:46:51;;;;;;;6.13;1.02;;;11.10;73.20;;;;;;5034922;28;20049;-72
2020/12/29 08:49:17;;;;;;;6.43;1.13;;;11.90;71.80;;;;;;5035356;28;20045;-72
2020/12/29 08:51:44;;;;;;;5.57;0.77;;;12.50;70.30;;;;;;5035096;28;20127;-72
2020/12/29 08:54:20;;;;;;;6.50;1.25;;;13.10;69.00;;;;;;5034916;28;20068;-72
2020/12/29 08:56:46;;;;;;;5.70;1.13;;;13.40;67.40;;;;;;5034435;28;20060;-72
2020/12/29 08:59:19;;;;;;;6.93;1.85;;;13.60;66.70;;;;;;5032458;28;20448;-72
2020/12/29 09:01:54;;;;;;;6.13;1.50;;;13.40;66.30;;;;;;5034481;28;20401;-72
2020/12/29 09:04:30;;;;;;;7.28;2.13;;;13.60;66.30;;;;;;5034617;28;20080;-72
2020/12/29 09:07:09;;;;;;;7.03;2.00;;;14.10;65.60;;;;;;5034203;28;20525;-72
2020/12/29 09:09:37;;;;;;;7.18;1.88;;;14.50;64.40;;;;;;5034794;28;20064;-72
2020/12/29 09:12:08;;;;;;;6.57;1.38;;;14.70;64.10;;;;;;5031863;28;20033;-72
2020/12/29 09:14:35;;;;;;;6.68;1.42;;;14.50;63.80;;;;;;5034287;28;20120;-72
2020/12/29 09:17:06;;;;;;;6.85;1.30;;;14.40;64.60;;;;;;5034296;28;20037;-72
2020/12/29 09:19:33;;;;;;;7.30;1.20;;;14.00;64.80;;;;;;5034632;28;20045;-72
2020/12/29 09:22:12;;;;;;;8.43;1.20;;;13.70;65.30;;;;;;5034089;28;20370;-72
2020/12/29 09:24:53;;;;;;;5.75;1.17;;;13.20;65.80;;;;;;5034794;28;20045;-72
2020/12/29 09:27:28;;;;;;;5.65;1.17;;;13.10;66.00;;;;;;5033874;28;20120;-72
2020/12/29 09:29:55;;;;;;;6.85;1.40;;;12.90;65.50;;;;;;5033887;28;20046;-73
2020/12/29 09:32:23;;;;;;;6.68;2.63;;;13.10;66.10;;;;;;5034023;28;20036;-72
2020/12/29 09:34:49;;;;;;;6.25;2.17;;;13.30;66.20;;;;;;5033708;28;20037;-72
2020/12/29 09:37:16;;;;;;;7.60;1.90;;;13.30;67.20;;;;;;5036447;28;21482;-72
2020/12/29 09:39:41;;;;;;;5.75;1.70;;;13.20;67.40;;;;;;5036328;28;20041;-72
2020/12/29 09:42:07;;;;;;;8.02;1.63;;;13.10;67.30;;;;;;5033366;28;20087;-72
2020/12/29 09:44:33;;;;;;;5.15;1.27;;;13.10;67.50;;;;;;5034222;28;20489;-72
2020/12/29 09:46:59;;;;;;;7.72;1.38;;;13.00;67.40;;;;;;5044749;28;20064;-72
2020/12/29 09:49:25;;;;;;;3.95;1.02;;;12.90;67.90;;;;;;5054004;28;20476;-71
2020/12/29 09:51:54;;;;;;;7.68;2.13;;;12.70;68.80;;;;;;5054162;28;20399;-72
2020/12/29 09:54:20;;;;;;;4.88;1.63;;;12.50;69.30;;;;;;5053684;28;20032;-72
2020/12/29 09:56:46;;;;;;;6.95;2.50;;;12.30;69.20;;;;;;5053537;28;20404;-72
2020/12/29 09:59:12;;;;;;;5.22;1.80;;;12.10;69.30;;;;;;5053476;28;20103;-72
2020/12/29 10:01:38;;;;;;;6.53;1.95;;;11.90;71.10;;;;;;5054018;28;20124;-71
2020/12/29 10:04:03;;;;;;;7.07;2.45;;;11.70;73.10;;;;;;5053200;28;20040;-72
2020/12/29 10:06:30;;;;;;;6.10;2.40;;;11.50;74.20;;;;;;5053218;28;20134;-72
2020/12/29 10:08:56;;;;;;;5.22;1.10;;;11.40;74.50;;;;;;5053507;28;20124;-72
2020/12/29 10:11:24;;;;;;;4.43;1.20;;;11.20;74.30;;;;;;5053362;28;20517;-72
2020/12/29 10:13:50;;;;;;;3.17;0.82;;;10.90;74.10;;;;;;5053143;28;20415;-71
2020/12/29 10:16:16;;;;;;;4.53;1.00;;;10.90;73.90;;;;;;5053508;28;20041;-72
2020/12/29 10:18:42;;;;;;;3.55;0.60;;;10.70;73.70;;;;;;5053004;28;20041;-71
2020/12/29 10:21:07;;;;;;;3.85;0.88;;;10.70;73.70;;;;;;5052349;28;20039;-71
2020/12/29 10:23:33;;;;;;;6.55;0.82;;;10.70;73.60;;;;;;5037222;28;20076;-71
2020/12/29 10:25:59;;;;;;;5.15;0.40;;;10.70;73.80;;;;;;5033378;28;20057;-72
2020/12/29 10:28:25;;;;;;;2.45;0.30;;;10.30;73.50;;;;;;5032890;28;20103;-72
2020/12/29 10:30:51;;;;;;;3.03;0.35;;;10.60;73.90;;;;;;5033588;28;20075;-72
2020/12/29 10:33:17;;;;;;;2.47;0.20;;;10.60;74.00;;;;;;5040165;28;20079;-71
2020/12/29 10:35:42;;;;;;;1.35;0.28;;;10.60;74.00;;;;;;5053260;28;20504;-71
2020/12/29 10:38:08;;;;;;;1.95;0.50;;;10.50;74.20;;;;;;5033917;28;20040;-71
2020/12/29 10:40:34;;;;;;;2.50;0.70;;;10.70;74.30;;;;;;5032729;28;20029;-71
2020/12/29 10:43:00;;;;;;;5.70;2.08;;;10.70;74.20;;;;;;5032694;28;20049;-71
2020/12/29 10:45:26;;;;;;;5.50;1.50;;;10.80;74.30;;;;;;5033180;28;20041;-71
2020/12/29 10:47:51;;;;;;;2.80;0.70;;;10.70;74.40;;;;;;5033531;28;20065;-71
2020/12/29 10:50:17;;;;;;;2.95;0.50;;;10.90;74.40;;;;;;5033453;28;20038;-71
2020/12/29 10:52:43;;;;;;;2.75;0.60;;;11.00;74.30;;;;;;5032944;28;20504;-71
2020/12/29 10:55:09;;;;;;;4.18;0.38;;;11.00;74.10;;;;;;5033577;28;20670;-71
2020/12/29 10:57:35;;;;;;;2.15;0.20;;;11.00;73.70;;;;;;5034812;28;20047;-71
2020/12/29 11:00:00;;;;;;;3.47;0.30;;;10.90;73.60;;;;;;5053426;28;20045;-71
2020/12/29 11:02:26;;;;;;;3.67;0.38;;;11.10;73.40;;;;;;5052866;28;20577;-72
2020/12/29 11:04:52;;;;;;;2.33;0.40;;;11.00;73.50;;;;;;5052923;28;20051;-72
2020/12/29 11:07:18;;;;;;;2.95;0.32;;;11.00;73.50;;;;;;5053362;28;20095;-72
2020/12/29 11:09:43;;;;;;;1.92;0.32;;;11.00;73.40;;;;;;5053141;28;20125;-71
2020/12/29 11:12:09;;;;;;;1.45;0.28;;;10.90;73.10;;;;;;5053118;28;20029;-72
2020/12/29 11:14:35;;;;;;;2.28;0.25;;;10.90;73.00;;;;;;5053039;28;20036;-71
2020/12/29 11:17:01;;;;;;;4.28;0.20;;;10.90;73.10;;;;;;5052573;28;20095;-72
2020/12/29 11:19:27;;;;;;;2.00;0.20;;;11.00;73.00;;;;;;5053198;28;20112;-72
2020/12/29 11:21:52;;;;;;;2.03;0.40;;;10.90;72.90;;;;;;5053060;28;20557;-72
2020/12/29 11:24:18;;;;;;;2.80;0.20;;;10.90;72.90;;;;;;5057038;28;20036;-72
2020/12/29 11:26:44;;;;;;;3.78;0.28;;;10.80;72.80;;;;;;5057153;28;20526;-71
2020/12/29 11:29:10;;;;;;;2.33;0.20;;;10.80;72.80;;;;;;5056552;28;20057;-71
2020/12/29 11:31:36;;;;;;;1.60;0.20;;;10.80;72.60;;;;;;5056991;28;20044;-71
2020/12/29 11:34:02;;;;;;;1.38;0.20;;;11.00;72.60;;;;;;5037665;28;20033;-71
2020/12/29 11:36:28;;;;;;;1.80;0.30;;;11.00;72.50;;;;;;5036162;28;20047;-71
2020/12/29 11:38:53;;;;;;;2.50;0.40;;;11.10;72.50;;;;;;5036060;28;20091;-71
2020/12/29 11:41:19;;;;;;;2.85;0.85;;;11.30;72.30;;;;;;5036697;28;20065;-72
2020/12/29 11:43:45;;;;;;;2.83;0.43;;;11.30;72.00;;;;;;5036631;28;20044;-72
2020/12/29 11:46:11;;;;;;;1.98;0.20;;;11.60;71.80;;;;;;5036065;28;20052;-72
2020/12/29 11:48:37;;;;;;;1.05;0.30;;;11.70;71.60;;;;;;5035740;28;20033;-72
2020/12/29 11:51:07;;;;;;;1.42;0.20;;;11.80;71.50;;;;;;5037296;28;20072;-72
2020/12/29 11:53:33;;;;;;;1.40;0.17;;;11.70;71.30;;;;;;5047342;28;20041;-71
2020/12/29 11:55:59;;;;;;;3.97;0.32;;;11.70;71.00;;;;;;5056304;28;20094;-71
2020/12/29 11:58:26;;;;;;;2.15;0.25;;;11.70;70.90;;;;;;5055805;28;20477;-71
2020/12/29 12:00:52;;;;;;;1.85;0.20;;;11.60;70.60;;;;;;5056346;28;20119;-71
2020/12/29 12:03:18;;;;;;;1.27;0.28;;;11.50;70.40;;;;;;5055482;28;20539;-71
2020/12/29 12:05:44;;;;;;;1.60;0.17;;;11.40;70.40;;;;;;5044166;28;20144;-72
2020/12/29 12:08:09;;;;;;;2.08;0.22;;;11.40;70.50;;;;;;5038112;28;20041;-71
2020/12/29 12:10:35;;;;;;;1.50;0.20;;;11.40;70.50;;;;;;5035518;28;20116;-71
2020/12/29 12:13:01;;;;;;;2.42;0.25;;;11.30;70.50;;;;;;5034539;28;20079;-71
2020/12/29 12:15:27;;;;;;;2.15;0.20;;;11.40;70.50;;;;;;5035393;28;20045;-71
2020/12/29 12:17:52;;;;;;;2.75;0.22;;;11.40;70.50;;;;;;5035888;28;20481;-71
2020/12/29 12:20:18;;;;;;;3.75;0.38;;;11.30;70.40;;;;;;5035873;28;20381;-71
2020/12/29 12:22:44;;;;;;;2.78;0.30;;;11.40;70.40;;;;;;5034651;28;20045;-71
2020/12/29 12:25:10;;;;;;;3.53;0.50;;;11.40;70.40;;;;;;5035637;28;20489;-71
2020/12/29 12:27:36;;;;;;;3.42;0.30;;;11.50;70.50;;;;;;5039843;28;20075;-72
2020/12/29 12:30:01;;;;;;;2.33;0.20;;;11.60;70.40;;;;;;5045599;28;20408;-71
2020/12/29 12:32:27;;;;;;;1.33;0.25;;;11.60;70.30;;;;;;5055238;28;20071;-72
2020/12/29 12:34:53;;;;;;;3.45;0.30;;;11.60;70.20;;;;;;5034273;28;20030;-70
2020/12/29 12:37:19;;;;;;;2.60;0.40;;;11.70;70.10;;;;;;5050596;28;20052;-70
2020/12/29 12:39:44;;;;;;;4.43;0.30;;;11.60;70.10;;;;;;5054846;28;20044;-72
2020/12/29 12:42:11;;;;;;;3.28;0.50;;;11.60;70.00;;;;;;5055174;28;20041;-70
2020/12/29 12:44:39;;;;;;;4.05;0.30;;;11.60;70.00;;;;;;5055166;28;20067;-71
2020/12/29 12:47:05;;;;;;;2.90;0.17;;;11.80;70.00;;;;;;5054767;28;20439;-71
2020/12/29 12:49:31;;;;;;;1.23;0.15;;;11.80;69.70;;;;;;5055144;28;20111;-70
2020/12/29 12:51:57;;;;;;;3.55;0.30;;;11.70;69.50;;;;;;5055304;28;20033;-70
2020/12/29 12:54:23;;;;;;;2.88;0.30;;;11.70;69.60;;;;;;5054813;28;20069;-70